sensor_id;sensor_type;location;lat;lon;timestamp;temperature;humidity
54938;DHT22;52756;52.826;6.214;2023-06-01T00:01:59;14.50;63.80
54938;DHT22;52756;52.826;6.214;2023-06-01T00:04:25;14.40;63.80
54938;DHT22;52756;52.826;6.214;2023-06-01T00:06:51;14.30;63.90
54938;DHT22;52756;52.826;6.214;2023-06-01T00:09:16;14.30;64.00
54938;DHT22;52756;52.826;6.214;2023-06-01T00:11:43;14.20;64.10
54938;DHT22;52756;52.826;6.214;2023-06-01T00:14:09;14.20;64.20
54938;DHT22;52756;52.826;6.214;2023-06-01T00:16:34;14.20;64.50
54938;DHT22;52756;52.826;6.214;2023-06-01T00:19:01;14.20;64.40
54938;DHT22;52756;52.826;6.214;2023-06-01T00:21:29;14.20;64.50
54938;DHT22;52756;52.826;6.214;2023-06-01T00:23:57;14.30;64.50
54938;DHT22;52756;52.826;6.214;2023-06-01T00:26:23;14.30;64.80
54938;DHT22;52756;52.826;6.214;2023-06-01T00:28:49;14.30;64.40
54938;DHT22;52756;52.826;6.214;2023-06-01T00:31:14;14.40;64.40
54938;DHT22;52756;52.826;6.214;2023-06-01T00:33:40;14.40;64.20
54938;DHT22;52756;52.826;6.214;2023-06-01T00:36:06;14.50;64.30
54938;DHT22;52756;52.826;6.214;2023-06-01T00:38:32;14.50;64.10
54938;DHT22;52756;52.826;6.214;2023-06-01T00:40:57;14.50;64.10
54938;DHT22;52756;52.826;6.214;2023-06-01T00:43:23;14.50;64.00
54938;DHT22;52756;52.826;6.214;2023-06-01T00:45:49;14.60;63.90
54938;DHT22;52756;52.826;6.214;2023-06-01T00:48:16;14.60;63.90
54938;DHT22;52756;52.826;6.214;2023-06-01T00:50:42;14.60;63.90
54938;DHT22;52756;52.826;6.214;2023-06-01T00:53:12;14.60;63.90
54938;DHT22;52756;52.826;6.214;2023-06-01T00:55:40;14.60;64.10
54938;DHT22;52756;52.826;6.214;2023-06-01T00:58:06;14.60;64.10
54938;DHT22;52756;52.826;6.214;2023-06-01T01:00:32;14.60;64.00
54938;DHT22;52756;52.826;6.214;2023-06-01T01:02:57;14.60;64.00
54938;DHT22;52756;52.826;6.214;2023-06-01T01:05:26;14.60;64.00
54938;DHT22;52756;52.826;6.214;2023-06-01T01:08:20;14.60;63.80
54938;DHT22;52756;52.826;6.214;2023-06-01T01:11:02;14.60;63.80
54938;DHT22;52756;52.826;6.214;2023-06-01T01:13:55;14.60;63.80
54938;DHT22;52756;52.826;6.214;2023-06-01T01:16:25;14.60;63.70
54938;DHT22;52756;52.826;6.214;2023-06-01T01:21:40;14.60;63.70
54938;DHT22;52756;52.826;6.214;2023-06-01T01:27:32;14.60;63.50
54938;DHT22;52756;52.826;6.214;2023-06-01T01:30:05;14.60;64.10
54938;DHT22;52756;52.826;6.214;2023-06-01T01:32:33;14.90;63.80
54938;DHT22;52756;52.826;6.214;2023-06-01T01:35:01;14.60;63.50
54938;DHT22;52756;52.826;6.214;2023-06-01T01:37:28;14.60;63.50
54938;DHT22;52756;52.826;6.214;2023-06-01T01:39:54;14.60;63.50
54938;DHT22;52756;52.826;6.214;2023-06-01T01:42:19;14.70;63.40
54938;DHT22;52756;52.826;6.214;2023-06-01T01:44:46;14.70;63.20
54938;DHT22;52756;52.826;6.214;2023-06-01T01:47:23;14.70;63.10
54938;DHT22;52756;52.826;6.214;2023-06-01T01:50:01;14.70;63.00
54938;DHT22;52756;52.826;6.214;2023-06-01T01:52:39;14.70;63.00
54938;DHT22;52756;52.826;6.214;2023-06-01T01:55:10;14.70;62.70
54938;DHT22;52756;52.826;6.214;2023-06-01T01:57:37;14.70;62.70
54938;DHT22;52756;52.826;6.214;2023-06-01T02:00:05;14.70;62.70
54938;DHT22;52756;52.826;6.214;2023-06-01T02:02:33;14.60;62.80
54938;DHT22;52756;52.826;6.214;2023-06-01T02:04:59;14.60;62.80
54938;DHT22;52756;52.826;6.214;2023-06-01T02:07:24;14.60;62.80
54938;DHT22;52756;52.826;6.214;2023-06-01T02:09:50;14.50;62.60
54938;DHT22;52756;52.826;6.214;2023-06-01T02:12:16;14.50;62.60
54938;DHT22;52756;52.826;6.214;2023-06-01T02:14:42;14.50;62.60
54938;DHT22;52756;52.826;6.214;2023-06-01T02:17:07;14.40;62.70
54938;DHT22;52756;52.826;6.214;2023-06-01T02:19:33;14.40;62.90
54938;DHT22;52756;52.826;6.214;2023-06-01T02:21:59;14.40;63.00
54938;DHT22;52756;52.826;6.214;2023-06-01T02:24:25;14.40;62.90
54938;DHT22;52756;52.826;6.214;2023-06-01T02:26:51;14.40;62.90
54938;DHT22;52756;52.826;6.214;2023-06-01T02:29:21;14.40;63.00
54938;DHT22;52756;52.826;6.214;2023-06-01T02:31:50;14.40;63.10
54938;DHT22;52756;52.826;6.214;2023-06-01T02:34:17;14.40;63.10
54938;DHT22;52756;52.826;6.214;2023-06-01T02:36:42;14.40;63.10
54938;DHT22;52756;52.826;6.214;2023-06-01T02:39:08;14.40;63.30
54938;DHT22;52756;52.826;6.214;2023-06-01T02:41:35;14.40;63.20
54938;DHT22;52756;52.826;6.214;2023-06-01T02:44:01;14.40;63.20
54938;DHT22;52756;52.826;6.214;2023-06-01T02:46:26;14.40;63.20
54938;DHT22;52756;52.826;6.214;2023-06-01T02:48:52;14.30;63.10
54938;DHT22;52756;52.826;6.214;2023-06-01T02:51:18;14.30;63.10
54938;DHT22;52756;52.826;6.214;2023-06-01T02:53:44;14.20;63.20
54938;DHT22;52756;52.826;6.214;2023-06-01T02:56:12;14.20;63.40
54938;DHT22;52756;52.826;6.214;2023-06-01T02:58:38;14.20;63.50
54938;DHT22;52756;52.826;6.214;2023-06-01T03:01:04;14.20;63.50
54938;DHT22;52756;52.826;6.214;2023-06-01T03:03:30;14.20;63.60
54938;DHT22;52756;52.826;6.214;2023-06-01T03:05:56;14.20;63.60
54938;DHT22;52756;52.826;6.214;2023-06-01T03:08:23;14.20;63.50
54938;DHT22;52756;52.826;6.214;2023-06-01T03:10:50;14.20;63.50
54938;DHT22;52756;52.826;6.214;2023-06-01T03:13:16;14.20;63.50
54938;DHT22;52756;52.826;6.214;2023-06-01T03:15:41;14.20;63.40
54938;DHT22;52756;52.826;6.214;2023-06-01T03:18:07;14.20;63.40
54938;DHT22;52756;52.826;6.214;2023-06-01T03:20:37;14.20;63.30
54938;DHT22;52756;52.826;6.214;2023-06-01T03:23:02;14.20;63.30
54938;DHT22;52756;52.826;6.214;2023-06-01T03:25:28;14.20;63.30
54938;DHT22;52756;52.826;6.214;2023-06-01T03:27:54;14.20;63.40
54938;DHT22;52756;52.826;6.214;2023-06-01T03:30:20;14.20;63.40
54938;DHT22;52756;52.826;6.214;2023-06-01T03:32:46;14.20;63.40
54938;DHT22;52756;52.826;6.214;2023-06-01T03:35:13;14.20;63.40
54938;DHT22;52756;52.826;6.214;2023-06-01T03:37:40;14.20;63.50
54938;DHT22;52756;52.826;6.214;2023-06-01T03:40:09;14.20;63.40
54938;DHT22;52756;52.826;6.214;2023-06-01T03:42:43;14.20;63.40
54938;DHT22;52756;52.826;6.214;2023-06-01T03:45:09;14.20;63.30
54938;DHT22;52756;52.826;6.214;2023-06-01T03:47:35;14.20;63.40
54938;DHT22;52756;52.826;6.214;2023-06-01T03:50:03;14.20;63.30
54938;DHT22;52756;52.826;6.214;2023-06-01T03:52:33;14.20;63.30
54938;DHT22;52756;52.826;6.214;2023-06-01T03:55:00;14.20;63.30
54938;DHT22;52756;52.826;6.214;2023-06-01T03:57:37;14.20;63.80
54938;DHT22;52756;52.826;6.214;2023-06-01T04:00:07;14.20;63.40
54938;DHT22;52756;52.826;6.214;2023-06-01T04:03:03;14.20;63.50
54938;DHT22;52756;52.826;6.214;2023-06-01T04:05:32;14.20;63.40
54938;DHT22;52756;52.826;6.214;2023-06-01T04:07:58;14.20;63.60
54938;DHT22;52756;52.826;6.214;2023-06-01T04:10:24;14.20;63.70
54938;DHT22;52756;52.826;6.214;2023-06-01T04:12:50;14.20;63.60
54938;DHT22;52756;52.826;6.214;2023-06-01T04:15:19;14.20;63.40
54938;DHT22;52756;52.826;6.214;2023-06-01T04:17:45;14.20;63.20
54938;DHT22;52756;52.826;6.214;2023-06-01T04:20:15;14.20;63.10
54938;DHT22;52756;52.826;6.214;2023-06-01T04:22:42;14.20;63.10
54938;DHT22;52756;52.826;6.214;2023-06-01T04:25:12;14.20;63.10
54938;DHT22;52756;52.826;6.214;2023-06-01T04:27:42;14.20;63.10
54938;DHT22;52756;52.826;6.214;2023-06-01T04:30:11;14.20;63.20
54938;DHT22;52756;52.826;6.214;2023-06-01T04:32:37;14.20;63.30
54938;DHT22;52756;52.826;6.214;2023-06-01T04:35:04;14.20;63.30
54938;DHT22;52756;52.826;6.214;2023-06-01T04:37:36;14.20;63.30
54938;DHT22;52756;52.826;6.214;2023-06-01T04:40:02;14.20;63.20
54938;DHT22;52756;52.826;6.214;2023-06-01T04:42:32;14.20;63.10
54938;DHT22;52756;52.826;6.214;2023-06-01T04:45:00;14.20;63.20
54938;DHT22;52756;52.826;6.214;2023-06-01T04:47:26;14.20;63.20
54938;DHT22;52756;52.826;6.214;2023-06-01T04:49:53;14.20;63.20
54938;DHT22;52756;52.826;6.214;2023-06-01T04:52:18;14.20;63.20
54938;DHT22;52756;52.826;6.214;2023-06-01T04:54:45;14.20;63.20
54938;DHT22;52756;52.826;6.214;2023-06-01T04:57:11;14.10;63.20
54938;DHT22;52756;52.826;6.214;2023-06-01T04:59:40;14.10;63.40
54938;DHT22;52756;52.826;6.214;2023-06-01T05:02:07;14.10;63.60
54938;DHT22;52756;52.826;6.214;2023-06-01T05:04:33;14.10;63.60
54938;DHT22;52756;52.826;6.214;2023-06-01T05:06:58;14.10;63.60
54938;DHT22;52756;52.826;6.214;2023-06-01T05:09:24;14.10;63.60
54938;DHT22;52756;52.826;6.214;2023-06-01T05:11:50;14.10;63.50
54938;DHT22;52756;52.826;6.214;2023-06-01T05:14:16;14.20;63.40
54938;DHT22;52756;52.826;6.214;2023-06-01T05:16:42;14.20;63.30
54938;DHT22;52756;52.826;6.214;2023-06-01T05:19:07;14.20;63.10
54938;DHT22;52756;52.826;6.214;2023-06-01T05:21:33;14.20;63.10
54938;DHT22;52756;52.826;6.214;2023-06-01T05:23:59;14.20;63.00
54938;DHT22;52756;52.826;6.214;2023-06-01T05:26:24;14.20;63.10
54938;DHT22;52756;52.826;6.214;2023-06-01T05:28:50;14.30;63.20
54938;DHT22;52756;52.826;6.214;2023-06-01T05:31:16;14.30;63.10
54938;DHT22;52756;52.826;6.214;2023-06-01T05:33:42;14.20;63.10
54938;DHT22;52756;52.826;6.214;2023-06-01T05:36:08;14.30;63.00
54938;DHT22;52756;52.826;6.214;2023-06-01T05:38:33;14.30;63.10
54938;DHT22;52756;52.826;6.214;2023-06-01T05:40:59;14.30;63.10
54938;DHT22;52756;52.826;6.214;2023-06-01T05:43:25;14.30;63.20
54938;DHT22;52756;52.826;6.214;2023-06-01T05:45:51;14.20;63.30
54938;DHT22;52756;52.826;6.214;2023-06-01T05:48:16;14.20;63.40
54938;DHT22;52756;52.826;6.214;2023-06-01T05:50:43;14.30;63.60
54938;DHT22;52756;52.826;6.214;2023-06-01T05:53:09;14.30;63.60
54938;DHT22;52756;52.826;6.214;2023-06-01T05:55:35;14.30;63.40
54938;DHT22;52756;52.826;6.214;2023-06-01T05:58:01;14.40;63.20
54938;DHT22;52756;52.826;6.214;2023-06-01T06:00:26;14.40;63.00
54938;DHT22;52756;52.826;6.214;2023-06-01T06:02:52;14.30;63.00
54938;DHT22;52756;52.826;6.214;2023-06-01T06:05:18;14.30;63.10
54938;DHT22;52756;52.826;6.214;2023-06-01T06:07:44;14.30;63.10
54938;DHT22;52756;52.826;6.214;2023-06-01T06:10:12;14.30;63.20
54938;DHT22;52756;52.826;6.214;2023-06-01T06:12:38;14.40;63.30
54938;DHT22;52756;52.826;6.214;2023-06-01T06:15:04;14.40;63.20
54938;DHT22;52756;52.826;6.214;2023-06-01T06:17:30;14.40;63.10
54938;DHT22;52756;52.826;6.214;2023-06-01T06:19:55;14.50;63.10
54938;DHT22;52756;52.826;6.214;2023-06-01T06:22:21;14.50;63.00
54938;DHT22;52756;52.826;6.214;2023-06-01T06:24:47;14.50;62.50
54938;DHT22;52756;52.826;6.214;2023-06-01T06:27:13;14.50;62.40
54938;DHT22;52756;52.826;6.214;2023-06-01T06:29:38;14.50;62.20
54938;DHT22;52756;52.826;6.214;2023-06-01T06:32:05;14.50;62.20
54938;DHT22;52756;52.826;6.214;2023-06-01T06:34:31;14.40;62.50
54938;DHT22;52756;52.826;6.214;2023-06-01T06:37:03;14.40;62.80
54938;DHT22;52756;52.826;6.214;2023-06-01T06:39:28;14.40;62.90
54938;DHT22;52756;52.826;6.214;2023-06-01T06:41:54;14.50;63.20
54938;DHT22;52756;52.826;6.214;2023-06-01T06:44:20;14.50;63.40
54938;DHT22;52756;52.826;6.214;2023-06-01T06:46:45;14.50;63.50
54938;DHT22;52756;52.826;6.214;2023-06-01T06:49:11;14.50;63.50
54938;DHT22;52756;52.826;6.214;2023-06-01T06:51:37;14.50;63.50
54938;DHT22;52756;52.826;6.214;2023-06-01T06:54:03;14.50;63.50
54938;DHT22;52756;52.826;6.214;2023-06-01T06:56:31;14.50;63.50
54938;DHT22;52756;52.826;6.214;2023-06-01T06:58:56;14.50;63.60
54938;DHT22;52756;52.826;6.214;2023-06-01T07:01:22;14.50;63.60
54938;DHT22;52756;52.826;6.214;2023-06-01T07:03:51;14.60;63.50
54938;DHT22;52756;52.826;6.214;2023-06-01T07:06:18;14.60;63.40
54938;DHT22;52756;52.826;6.214;2023-06-01T07:08:44;14.60;63.40
54938;DHT22;52756;52.826;6.214;2023-06-01T07:11:10;14.70;63.60
54938;DHT22;52756;52.826;6.214;2023-06-01T07:13:36;14.80;63.70
54938;DHT22;52756;52.826;6.214;2023-06-01T07:16:03;14.80;63.40
54938;DHT22;52756;52.826;6.214;2023-06-01T07:18:30;14.80;63.30
54938;DHT22;52756;52.826;6.214;2023-06-01T07:20:57;14.90;63.00
54938;DHT22;52756;52.826;6.214;2023-06-01T07:23:23;14.90;63.10
54938;DHT22;52756;52.826;6.214;2023-06-01T07:25:48;14.90;63.00
54938;DHT22;52756;52.826;6.214;2023-06-01T07:28:14;14.90;62.70
54938;DHT22;52756;52.826;6.214;2023-06-01T07:30:41;14.90;62.80
54938;DHT22;52756;52.826;6.214;2023-06-01T07:33:07;14.90;62.80
54938;DHT22;52756;52.826;6.214;2023-06-01T07:35:33;15.00;62.90
54938;DHT22;52756;52.826;6.214;2023-06-01T07:37:59;15.00;62.90
54938;DHT22;52756;52.826;6.214;2023-06-01T07:40:25;15.00;63.10
54938;DHT22;52756;52.826;6.214;2023-06-01T07:42:51;15.10;63.10
54938;DHT22;52756;52.826;6.214;2023-06-01T07:45:17;15.10;63.00
54938;DHT22;52756;52.826;6.214;2023-06-01T07:47:43;15.20;62.90
54938;DHT22;52756;52.826;6.214;2023-06-01T07:50:09;15.20;62.50
54938;DHT22;52756;52.826;6.214;2023-06-01T07:52:35;15.20;62.50
54938;DHT22;52756;52.826;6.214;2023-06-01T07:55:00;15.20;62.40
54938;DHT22;52756;52.826;6.214;2023-06-01T07:57:26;15.30;62.40
54938;DHT22;52756;52.826;6.214;2023-06-01T07:59:52;15.30;62.40
54938;DHT22;52756;52.826;6.214;2023-06-01T08:02:18;15.40;62.40
54938;DHT22;52756;52.826;6.214;2023-06-01T08:04:45;15.40;62.30
54938;DHT22;52756;52.826;6.214;2023-06-01T08:07:12;15.40;62.00
54938;DHT22;52756;52.826;6.214;2023-06-01T08:09:39;15.50;61.80
54938;DHT22;52756;52.826;6.214;2023-06-01T08:12:05;15.60;61.70
54938;DHT22;52756;52.826;6.214;2023-06-01T08:14:32;15.70;62.00
54938;DHT22;52756;52.826;6.214;2023-06-01T08:17:01;15.70;61.40
54938;DHT22;52756;52.826;6.214;2023-06-01T08:19:27;15.80;61.30
54938;DHT22;52756;52.826;6.214;2023-06-01T08:21:53;15.90;61.20
54938;DHT22;52756;52.826;6.214;2023-06-01T08:24:19;15.90;60.60
54938;DHT22;52756;52.826;6.214;2023-06-01T08:26:48;16.00;60.40
54938;DHT22;52756;52.826;6.214;2023-06-01T08:29:14;16.00;60.20
54938;DHT22;52756;52.826;6.214;2023-06-01T08:31:39;16.00;59.90
54938;DHT22;52756;52.826;6.214;2023-06-01T08:34:05;16.10;59.80
54938;DHT22;52756;52.826;6.214;2023-06-01T08:36:31;16.20;59.80
54938;DHT22;52756;52.826;6.214;2023-06-01T08:38:57;16.20;59.50
54938;DHT22;52756;52.826;6.214;2023-06-01T08:41:45;16.20;59.50
54938;DHT22;52756;52.826;6.214;2023-06-01T08:44:19;16.30;59.30
54938;DHT22;52756;52.826;6.214;2023-06-01T08:46:48;16.30;59.50
54938;DHT22;52756;52.826;6.214;2023-06-01T08:49:14;16.40;59.60
54938;DHT22;52756;52.826;6.214;2023-06-01T08:51:41;16.50;59.60
54938;DHT22;52756;52.826;6.214;2023-06-01T08:54:09;16.60;59.70
54938;DHT22;52756;52.826;6.214;2023-06-01T08:56:35;16.60;59.70
54938;DHT22;52756;52.826;6.214;2023-06-01T08:59:02;16.60;59.60
54938;DHT22;52756;52.826;6.214;2023-06-01T09:01:28;16.70;59.70
54938;DHT22;52756;52.826;6.214;2023-06-01T09:03:54;16.70;59.60
54938;DHT22;52756;52.826;6.214;2023-06-01T09:06:20;16.80;59.60
54938;DHT22;52756;52.826;6.214;2023-06-01T09:08:46;16.80;59.50
54938;DHT22;52756;52.826;6.214;2023-06-01T09:11:12;16.90;59.50
54938;DHT22;52756;52.826;6.214;2023-06-01T09:13:39;16.90;59.30
54938;DHT22;52756;52.826;6.214;2023-06-01T09:16:06;17.00;59.40
54938;DHT22;52756;52.826;6.214;2023-06-01T09:18:32;17.00;59.50
54938;DHT22;52756;52.826;6.214;2023-06-01T09:21:12;17.10;59.70
54938;DHT22;52756;52.826;6.214;2023-06-01T09:23:38;17.10;59.70
54938;DHT22;52756;52.826;6.214;2023-06-01T09:26:11;17.10;60.10
54938;DHT22;52756;52.826;6.214;2023-06-01T09:31:41;17.20;60.20
54938;DHT22;52756;52.826;6.214;2023-06-01T09:34:16;17.20;60.40
54938;DHT22;52756;52.826;6.214;2023-06-01T09:36:44;17.30;60.90
54938;DHT22;52756;52.826;6.214;2023-06-01T09:39:15;17.30;61.10
54938;DHT22;52756;52.826;6.214;2023-06-01T09:41:48;17.30;61.20
54938;DHT22;52756;52.826;6.214;2023-06-01T09:44:23;17.30;61.10
54938;DHT22;52756;52.826;6.214;2023-06-01T09:46:50;17.30;60.90
54938;DHT22;52756;52.826;6.214;2023-06-01T09:49:28;17.30;60.70
54938;DHT22;52756;52.826;6.214;2023-06-01T09:52:12;17.20;60.50
54938;DHT22;52756;52.826;6.214;2023-06-01T09:54:51;17.10;60.50
54938;DHT22;52756;52.826;6.214;2023-06-01T09:57:25;17.00;60.70
54938;DHT22;52756;52.826;6.214;2023-06-01T09:59:51;16.90;60.90
54938;DHT22;52756;52.826;6.214;2023-06-01T10:02:19;16.90;61.20
54938;DHT22;52756;52.826;6.214;2023-06-01T10:04:55;16.70;61.10
54938;DHT22;52756;52.826;6.214;2023-06-01T10:07:26;16.70;61.00
54938;DHT22;52756;52.826;6.214;2023-06-01T10:09:58;16.60;61.20
54938;DHT22;52756;52.826;6.214;2023-06-01T10:12:25;16.60;61.70
54938;DHT22;52756;52.826;6.214;2023-06-01T10:14:51;16.50;61.90
54938;DHT22;52756;52.826;6.214;2023-06-01T10:17:21;16.50;61.60
54938;DHT22;52756;52.826;6.214;2023-06-01T10:19:48;16.50;61.40
54938;DHT22;52756;52.826;6.214;2023-06-01T10:22:13;16.50;61.40
54938;DHT22;52756;52.826;6.214;2023-06-01T10:24:40;16.50;61.30
54938;DHT22;52756;52.826;6.214;2023-06-01T10:29:41;16.60;60.90
54938;DHT22;52756;52.826;6.214;2023-06-01T10:32:44;16.60;60.70
54938;DHT22;52756;52.826;6.214;2023-06-01T10:40:42;16.70;60.00
54938;DHT22;52756;52.826;6.214;2023-06-01T10:48:57;16.80;59.70
54938;DHT22;52756;52.826;6.214;2023-06-01T10:51:23;16.80;59.90
54938;DHT22;52756;52.826;6.214;2023-06-01T10:53:53;16.80;59.90
54938;DHT22;52756;52.826;6.214;2023-06-01T10:56:21;16.80;59.70
54938;DHT22;52756;52.826;6.214;2023-06-01T11:01:44;16.90;59.70
54938;DHT22;52756;52.826;6.214;2023-06-01T11:04:11;16.90;59.50
54938;DHT22;52756;52.826;6.214;2023-06-01T11:06:42;17.00;59.20
54938;DHT22;52756;52.826;6.214;2023-06-01T11:09:11;17.00;59.00
54938;DHT22;52756;52.826;6.214;2023-06-01T11:14:28;17.00;58.90
54938;DHT22;52756;52.826;6.214;2023-06-01T11:17:26;17.10;59.10
54938;DHT22;52756;52.826;6.214;2023-06-01T11:19:57;17.10;58.90
54938;DHT22;52756;52.826;6.214;2023-06-01T11:22:24;17.10;58.70
54938;DHT22;52756;52.826;6.214;2023-06-01T11:24:51;17.20;58.70
54938;DHT22;52756;52.826;6.214;2023-06-01T11:27:20;17.20;58.60
54938;DHT22;52756;52.826;6.214;2023-06-01T11:29:49;17.20;58.20
54938;DHT22;52756;52.826;6.214;2023-06-01T11:32:15;17.30;57.70
54938;DHT22;52756;52.826;6.214;2023-06-01T11:34:46;17.20;57.60
54938;DHT22;52756;52.826;6.214;2023-06-01T11:37:15;17.20;57.80
54938;DHT22;52756;52.826;6.214;2023-06-01T11:39:41;17.30;58.00
54938;DHT22;52756;52.826;6.214;2023-06-01T11:42:18;17.30;58.10
54938;DHT22;52756;52.826;6.214;2023-06-01T11:44:45;17.30;57.80
54938;DHT22;52756;52.826;6.214;2023-06-01T11:47:14;17.40;57.70
54938;DHT22;52756;52.826;6.214;2023-06-01T11:49:48;17.40;57.10
54938;DHT22;52756;52.826;6.214;2023-06-01T11:52:15;17.40;57.10
54938;DHT22;52756;52.826;6.214;2023-06-01T11:54:41;17.40;56.70
54938;DHT22;52756;52.826;6.214;2023-06-01T11:57:07;17.30;56.70
54938;DHT22;52756;52.826;6.214;2023-06-01T11:59:43;17.30;57.50
54938;DHT22;52756;52.826;6.214;2023-06-01T12:02:24;17.40;57.90
54938;DHT22;52756;52.826;6.214;2023-06-01T12:05:06;17.50;57.00
54938;DHT22;52756;52.826;6.214;2023-06-01T12:07:47;17.50;56.30
54938;DHT22;52756;52.826;6.214;2023-06-01T12:10:15;17.50;55.90
54938;DHT22;52756;52.826;6.214;2023-06-01T12:12:42;17.40;56.80
54938;DHT22;52756;52.826;6.214;2023-06-01T12:15:15;17.50;57.00
54938;DHT22;52756;52.826;6.214;2023-06-01T12:17:48;17.50;56.70
54938;DHT22;52756;52.826;6.214;2023-06-01T12:20:34;17.50;56.60
54938;DHT22;52756;52.826;6.214;2023-06-01T12:23:15;17.60;57.00
54938;DHT22;52756;52.826;6.214;2023-06-01T12:25:58;17.60;56.50
54938;DHT22;52756;52.826;6.214;2023-06-01T12:28:26;17.70;56.60
54938;DHT22;52756;52.826;6.214;2023-06-01T12:31:11;17.80;56.50
54938;DHT22;52756;52.826;6.214;2023-06-01T12:33:38;17.90;56.60
54938;DHT22;52756;52.826;6.214;2023-06-01T12:36:06;17.90;56.40
54938;DHT22;52756;52.826;6.214;2023-06-01T12:38:36;18.00;55.60
54938;DHT22;52756;52.826;6.214;2023-06-01T12:41:10;18.10;55.60
54938;DHT22;52756;52.826;6.214;2023-06-01T12:43:37;18.20;55.20
54938;DHT22;52756;52.826;6.214;2023-06-01T12:46:04;18.20;55.40
54938;DHT22;52756;52.826;6.214;2023-06-01T12:48:34;18.30;54.90
54938;DHT22;52756;52.826;6.214;2023-06-01T12:51:02;18.30;54.50
54938;DHT22;52756;52.826;6.214;2023-06-01T12:53:29;18.30;54.60
54938;DHT22;52756;52.826;6.214;2023-06-01T12:55:56;18.30;54.70
54938;DHT22;52756;52.826;6.214;2023-06-01T12:58:22;18.30;54.80
54938;DHT22;52756;52.826;6.214;2023-06-01T13:00:47;18.30;54.30
54938;DHT22;52756;52.826;6.214;2023-06-01T13:03:14;18.30;54.50
54938;DHT22;52756;52.826;6.214;2023-06-01T13:05:44;18.30;54.80
54938;DHT22;52756;52.826;6.214;2023-06-01T13:08:14;18.30;54.50
54938;DHT22;52756;52.826;6.214;2023-06-01T13:10:41;18.30;54.70
54938;DHT22;52756;52.826;6.214;2023-06-01T13:13:08;18.30;54.10
54938;DHT22;52756;52.826;6.214;2023-06-01T13:15:34;18.30;54.10
54938;DHT22;52756;52.826;6.214;2023-06-01T13:18:00;18.30;54.00
54938;DHT22;52756;52.826;6.214;2023-06-01T13:20:26;18.40;53.40
54938;DHT22;52756;52.826;6.214;2023-06-01T13:22:51;18.40;53.80
54938;DHT22;52756;52.826;6.214;2023-06-01T13:25:18;18.40;53.70
54938;DHT22;52756;52.826;6.214;2023-06-01T13:27:45;18.50;53.80
54938;DHT22;52756;52.826;6.214;2023-06-01T13:30:11;18.50;53.70
54938;DHT22;52756;52.826;6.214;2023-06-01T13:32:37;18.50;53.50
54938;DHT22;52756;52.826;6.214;2023-06-01T13:35:03;18.60;53.70
54938;DHT22;52756;52.826;6.214;2023-06-01T13:37:29;18.60;53.70
54938;DHT22;52756;52.826;6.214;2023-06-01T13:39:55;18.60;53.50
54938;DHT22;52756;52.826;6.214;2023-06-01T13:42:21;18.70;53.40
54938;DHT22;52756;52.826;6.214;2023-06-01T13:44:46;18.70;53.20
54938;DHT22;52756;52.826;6.214;2023-06-01T13:47:13;18.70;52.50
54938;DHT22;52756;52.826;6.214;2023-06-01T13:49:45;18.50;52.50
54938;DHT22;52756;52.826;6.214;2023-06-01T13:52:11;18.50;52.70
54938;DHT22;52756;52.826;6.214;2023-06-01T13:54:36;18.40;53.30
54938;DHT22;52756;52.826;6.214;2023-06-01T13:57:03;18.40;53.60
54938;DHT22;52756;52.826;6.214;2023-06-01T13:59:29;18.40;53.80
54938;DHT22;52756;52.826;6.214;2023-06-01T14:01:56;18.40;53.80
54938;DHT22;52756;52.826;6.214;2023-06-01T14:04:22;18.50;53.90
54938;DHT22;52756;52.826;6.214;2023-06-01T14:06:48;18.50;53.30
54938;DHT22;52756;52.826;6.214;2023-06-01T14:09:16;18.50;53.00
54938;DHT22;52756;52.826;6.214;2023-06-01T14:11:42;18.50;53.10
54938;DHT22;52756;52.826;6.214;2023-06-01T14:14:07;18.50;53.00
54938;DHT22;52756;52.826;6.214;2023-06-01T14:16:33;18.50;53.20
54938;DHT22;52756;52.826;6.214;2023-06-01T14:18:59;18.50;53.00
54938;DHT22;52756;52.826;6.214;2023-06-01T14:21:25;18.60;53.00
54938;DHT22;52756;52.826;6.214;2023-06-01T14:23:51;18.50;52.90
54938;DHT22;52756;52.826;6.214;2023-06-01T14:26:16;18.50;53.10
54938;DHT22;52756;52.826;6.214;2023-06-01T14:28:42;18.60;53.20
54938;DHT22;52756;52.826;6.214;2023-06-01T14:31:08;18.60;53.40
54938;DHT22;52756;52.826;6.214;2023-06-01T14:33:33;18.50;53.40
54938;DHT22;52756;52.826;6.214;2023-06-01T14:35:59;18.60;53.10
54938;DHT22;52756;52.826;6.214;2023-06-01T14:38:25;18.50;53.10
54938;DHT22;52756;52.826;6.214;2023-06-01T14:40:50;18.50;53.00
54938;DHT22;52756;52.826;6.214;2023-06-01T14:43:17;18.40;52.90
54938;DHT22;52756;52.826;6.214;2023-06-01T14:45:43;18.30;53.30
54938;DHT22;52756;52.826;6.214;2023-06-01T14:48:09;18.20;53.70
54938;DHT22;52756;52.826;6.214;2023-06-01T14:50:35;18.20;53.80
54938;DHT22;52756;52.826;6.214;2023-06-01T14:53:01;18.10;53.90
54938;DHT22;52756;52.826;6.214;2023-06-01T14:55:27;18.10;54.20
54938;DHT22;52756;52.826;6.214;2023-06-01T14:57:53;18.10;54.10
54938;DHT22;52756;52.826;6.214;2023-06-01T15:00:18;18.10;54.00
54938;DHT22;52756;52.826;6.214;2023-06-01T15:02:45;18.10;54.10
54938;DHT22;52756;52.826;6.214;2023-06-01T15:05:11;18.10;54.10
54938;DHT22;52756;52.826;6.214;2023-06-01T15:07:37;18.10;54.20
54938;DHT22;52756;52.826;6.214;2023-06-01T15:10:03;18.10;53.90
54938;DHT22;52756;52.826;6.214;2023-06-01T15:12:29;18.10;53.80
54938;DHT22;52756;52.826;6.214;2023-06-01T15:14:55;18.10;53.50
54938;DHT22;52756;52.826;6.214;2023-06-01T15:17:21;18.20;53.20
54938;DHT22;52756;52.826;6.214;2023-06-01T15:19:46;18.10;53.10
54938;DHT22;52756;52.826;6.214;2023-06-01T15:22:13;18.10;53.20
54938;DHT22;52756;52.826;6.214;2023-06-01T15:24:38;18.00;53.30
54938;DHT22;52756;52.826;6.214;2023-06-01T15:27:06;18.00;53.40
54938;DHT22;52756;52.826;6.214;2023-06-01T15:29:33;18.00;53.10
54938;DHT22;52756;52.826;6.214;2023-06-01T15:31:59;18.00;53.20
54938;DHT22;52756;52.826;6.214;2023-06-01T15:34:25;18.00;53.10
54938;DHT22;52756;52.826;6.214;2023-06-01T15:36:51;18.00;53.10
54938;DHT22;52756;52.826;6.214;2023-06-01T15:39:16;17.90;53.20
54938;DHT22;52756;52.826;6.214;2023-06-01T15:41:42;17.90;53.50
54938;DHT22;52756;52.826;6.214;2023-06-01T15:44:08;17.90;53.20
54938;DHT22;52756;52.826;6.214;2023-06-01T15:46:34;17.90;53.00
54938;DHT22;52756;52.826;6.214;2023-06-01T15:49:00;17.80;52.90
54938;DHT22;52756;52.826;6.214;2023-06-01T15:51:26;17.80;53.20
54938;DHT22;52756;52.826;6.214;2023-06-01T15:53:52;17.80;53.50
54938;DHT22;52756;52.826;6.214;2023-06-01T15:56:17;17.80;53.90
54938;DHT22;52756;52.826;6.214;2023-06-01T15:58:43;17.80;53.90
54938;DHT22;52756;52.826;6.214;2023-06-01T16:01:09;17.80;53.70
54938;DHT22;52756;52.826;6.214;2023-06-01T16:03:35;17.80;53.40